| time (UTC) | temp C | wind direction | speed KPH | gust KPH | rain 1hr cm | rain 24hr cm | rain mn cm | humidity % | barometer mb |
| 20260507232340 | 7 | 150 | 0.0 | 4.8 | 0.00 | 0.00 | 0.00 | 93 | |
| 20260507231319 | 7 | 180 | 0.0 | 3.2 | 0.00 | 0.00 | 0.00 | 90 | |
| 20260507230306 | 7 | 270 | 3.2 | 3.2 | 0.00 | 0.00 | 0.00 | 91 | |
| 20260507225318 | 7 | 228 | 0.0 | 3.2 | 0.00 | 0.00 | 0.00 | 91 | |
| 20260507224256 | 7 | 228 | 0.0 | 8.0 | 0.00 | 0.00 | 0.00 | 92 | |
| 20260507223306 | 7 | 222 | 8.0 | 8.0 | 0.00 | 0.00 | 0.00 | 94 | |
| 20260507222231 | 7 | 210 | 8.0 | 8.0 | 0.00 | 0.00 | 0.00 | 96 | |
| 20260507221230 | 7 | 222 | 8.0 | 8.0 | 0.00 | 0.00 | 0.00 | 95 | |
| 20260507220204 | 7 | 186 | 6.4 | 8.0 | 0.00 | 0.00 | 0.00 | 92 | |
| 20260507215205 | 7 | 210 | 4.8 | 6.4 | 0.00 | 0.00 | 0.00 | 91 | |
| 20260507214230 | 8 | 66 | 6.4 | 8.0 | 0.00 | 0.00 | 0.00 | 88 | |
| 20260507213305 | 8 | 39 | 6.4 | 9.7 | 0.00 | 0.00 | 0.00 | 89 | |
| 20260507212341 | 8 | 51 | 9.7 | 9.7 | 0.00 | 0.00 | 0.00 | 89 | |
| 20260507211355 | 8 | 55 | 6.4 | 6.4 | 0.00 | 0.00 | 0.00 | 89 | |
| 20260507210429 | 7 | 18 | 6.4 | 6.4 | 0.00 | 0.00 | 0.00 | 89 | |
| 20260507205429 | 7 | 210 | 3.2 | 6.4 | 0.00 | 0.00 | 0.00 | 91 | |
| 20260507204417 | 8 | 150 | 3.2 | 6.4 | 0.00 | 0.00 | 0.00 | 89 | |
| 20260507203432 | 8 | 180 | 3.2 | 3.2 | 0.00 | 0.00 | 0.00 | 86 | |
| 20260507202452 | 8 | 210 | 0.0 | 6.4 | 0.00 | 0.00 | 0.00 | 86 | |
| 20260507201443 | 8 | 210 | 3.2 | 6.4 | 0.00 | 0.00 | 0.00 | 87 | |
| 20260507200518 | 7 | 222 | 3.2 | 8.0 | 0.00 | 0.00 | 0.00 | 88 | |
| 20260507195452 | 8 | 217 | 6.4 | 9.7 | 0.00 | 0.00 | 0.00 | 87 | |
| 20260507194428 | 8 | 204 | 8.0 | 11.3 | 0.00 | 0.00 | 0.00 | 87 | |
| 20260507193428 | 8 | 156 | 8.0 | 9.7 | 0.00 | 0.00 | 0.00 | 86 | |
| 20260507192428 | 8 | 156 | 8.0 | 9.7 | 0.00 | 0.00 | 0.00 | 86 | |
| 20260507191442 | 7 | 198 | 6.4 | 6.4 | 0.00 | 0.00 | 0.00 | 87 | |
| 20260507190404 | 8 | 323 | 0.0 | 8.0 | 0.00 | 0.00 | 0.00 | 88 | |
| 20260507185427 | 8 | 0 | 3.2 | 9.7 | 0.00 | 0.00 | 0.00 | 91 | |
| 20260507184508 | 8 | 347 | 8.0 | 11.3 | 0.00 | 0.00 | 0.00 | 92 | |
| 20260507183428 | 7 | 0 | 8.0 | 9.7 | 0.00 | 0.00 | 0.00 | 92 | |
| 20260507182405 | 7 | 6 | 3.2 | 8.0 | 0.00 | 0.00 | 0.00 | 93 | |
| 20260507181442 | 7 | 13 | 6.4 | 8.0 | 0.00 | 0.00 | 0.00 | 95 | |
| 20260507180406 | 7 | 18 | 3.2 | 9.7 | 0.00 | 0.00 | 0.00 | 96 | |
| 20260507175405 | 8 | 60 | 8.0 | 9.7 | 0.00 | 0.00 | 0.00 | 95 | |
| 20260507174316 | 7 | 30 | 6.4 | 11.3 | 0.00 | 0.00 | 0.00 | 95 | |
| 20260507173331 | 7 | 330 | 9.7 | 11.3 | 0.00 | 0.00 | 0.00 | 94 | |
| 20260507172228 | 8 | 13 | 6.4 | 11.3 | 0.00 | 0.00 | 0.00 | 95 | |
| 20260507171251 | 8 | 342 | 11.3 | 14.5 | 0.00 | 0.00 | 0.00 | 93 | |
| 20260507170314 | 8 | 336 | 14.5 | 14.5 | 0.00 | 0.00 | 0.00 | 92 | |
| 20260507165315 | 8 | 336 | 8.0 | 19.3 | 0.00 | 0.00 | 0.00 | 88 | |
| 20260507164251 | 9 | 336 | 12.9 | 19.3 | 0.00 | 0.00 | 0.00 | 86 | |
| 20260507163228 | 8 | 323 | 8.0 | 11.3 | 0.00 | 0.00 | 0.00 | 89 | |
| 20260507162314 | 8 | 330 | 8.0 | 11.3 | 0.00 | 0.00 | 0.00 | 89 | |
| 20260507161352 | 8 | 0 | 8.0 | 11.3 | 0.00 | 0.00 | 0.00 | 85 | |
| 20260507160339 | 8 | 28 | 8.0 | 11.3 | 0.00 | 0.00 | 0.00 | 84 | |
| 20260507155403 | 8 | 66 | 9.7 | 11.3 | 0.00 | 0.00 | 0.00 | 80 | |
| 20260507154441 | 9 | 39 | 8.0 | 14.5 | 0.00 | 0.00 | 0.00 | 80 | |
| 20260507153428 | 10 | 58 | 14.5 | 14.5 | 0.00 | 0.00 | 0.00 | 77 | |
| 20260507152405 | 10 | 58 | 8.0 | 11.3 | 0.00 | 0.00 | 0.00 | 81 | |
| 20260507151417 | 9 | 270 | 8.0 | 25.7 | 0.00 | 0.00 | 0.00 | 71 | |
| 20260507150427 | 7 | 293 | 20.9 | 25.7 | 0.00 | 0.00 | 0.00 | 98 | |
| 20260507145427 | 9 | 338 | 11.3 | 20.9 | 0.00 | 0.00 | 0.00 | 76 | |
| 20260507144440 | 9 | 270 | 17.7 | 25.7 | 0.00 | 0.00 | 0.00 | 71 | |
| 20260507143515 | 8 | 264 | 19.3 | 25.7 | 0.00 | 0.00 | 0.00 | 74 | |
| 20260507142551 | 7 | 276 | 19.3 | 46.7 | 0.00 | 0.00 | 0.00 | 84 | |
| 20260507141627 | 7 | 307 | 43.5 | 54.7 | 0.00 | 0.00 | 0.00 | 85 | |
| 20260507140604 | 8 | 257 | 38.6 | 43.5 | 0.00 | 0.00 | 0.00 | 84 | |
| 20260507134653 | 10 | 252 | 4.8 | 9.7 | 0.00 | 0.00 | 0.00 | 86 | |
| 20260507133626 | 11 | 204 | 8.0 | 8.0 | 0.00 | 0.00 | 0.00 | 84 | |
| 20260507132626 | 11 | 162 | 4.8 | 11.3 | 0.00 | 0.00 | 0.00 | 82 | |
| 20260507131626 | 11 | 150 | 8.0 | 9.7 | 0.00 | 0.00 | 0.00 | 84 | |
| 20260507130619 | 11 | 127 | 6.4 | 14.5 | 0.00 | 0.00 | 0.00 | 86 | |
| 20260507125650 | 11 | 127 | 9.7 | 19.3 | 0.00 | 0.00 | 0.00 | 87 | |
| 20260507124652 | 11 | 143 | 14.5 | 17.7 | 0.00 | 0.00 | 0.00 | 83 | |
| 20260507123704 | 11 | 138 | 9.7 | 14.5 | 0.00 | 0.00 | 0.00 | 83 | |
| 20260507122716 | 11 | 150 | 9.7 | 14.5 | 0.00 | 0.00 | 0.00 | 80 | |
| 20260507121715 | 11 | 162 | 12.9 | 19.3 | 0.00 | 0.00 | 0.00 | 76 | |
| 20260507120717 | 11 | 162 | 8.0 | 17.7 | 0.00 | 0.00 | 0.00 | 73 | |
| 20260507115754 | 11 | 114 | 8.0 | 14.5 | 0.00 | 0.00 | 0.00 | 78 | |
| 20260507114715 | 10 | 167 | 14.5 | 14.5 | 0.00 | 0.00 | 0.00 | 82 | |
| 20260507113716 | 11 | 143 | 8.0 | 14.5 | 0.00 | 0.00 | 0.00 | 89 | |
| 20260507112629 | 10 | 150 | 11.3 | 12.9 | 0.00 | 0.00 | 0.00 | 97 | |
| 20260507111618 | 9 | 138 | 8.0 | 11.3 | 0.00 | 0.00 | 0.00 | 99 | |
| 20260507110515 | 9 | 127 | 8.0 | 11.3 | 0.00 | 0.00 | 0.00 | 96 | |
| 20260507105516 | 8 | 156 | 6.4 | 9.7 | 0.00 | 0.00 | 0.00 | 97 | |
| 20260507104554 | 8 | 162 | 9.7 | 9.7 | 0.00 | 0.00 | 0.00 | 99 | |
| 20260507103626 | 8 | 138 | 6.4 | 11.3 | 0.00 | 0.00 | 0.00 | 99 | |
| 20260507102651 | 9 | 150 | 8.0 | 9.7 | 0.00 | 0.00 | 0.00 | 99 | |
| 20260507101641 | 9 | 127 | 8.0 | 12.9 | 0.00 | 0.00 | 0.00 | 99 | |
| 20260507100602 | 8 | 156 | 8.0 | 12.9 | 0.00 | 0.00 | 0.00 | 99 | |
| 20260507095602 | 7 | 150 | 9.7 | 14.5 | 0.00 | 0.00 | 0.00 | 96 | |
| 20260507094639 | 7 | 150 | 9.7 | 12.9 | 0.00 | 0.00 | 0.00 | 98 | |
| 20260507093604 | 6 | 162 | 3.2 | 20.9 | 0.00 | 0.00 | 0.00 | 98 | |
| 20260507092539 | 7 | 180 | 14.5 | 14.5 | 0.00 | 0.00 | 0.00 | 99 | |
| 20260507091618 | 7 | 77 | 4.8 | 6.4 | 0.00 | 0.00 | 0.00 | 99 | |
| 20260507090650 | 8 | 37 | 3.2 | 8.0 | 0.00 | 0.00 | 0.00 | 99 | |
| 20260507085651 | 8 | 30 | 0.0 | 11.3 | 0.00 | 0.00 | 0.00 | 99 | |
| 20260507084643 | 8 | 32 | 9.7 | 11.3 | 0.00 | 0.00 | 0.00 | 99 | |
| 20260507083541 | 8 | 103 | 6.4 | 11.3 | 0.00 | 0.00 | 0.00 | 99 | |
| 20260507082538 | 8 | 100 | 11.3 | 11.3 | 0.00 | 0.00 | 0.00 | 99 | |
| 20260507081618 | 8 | 167 | 4.8 | 11.3 | 0.00 | 0.00 | 0.00 | 99 | |
| 20260507080603 | 8 | 276 | 4.8 | 14.5 | 0.00 | 0.00 | 0.00 | 99 | |
| 20260507075626 | 8 | 6 | 8.0 | 14.5 | 0.00 | 0.00 | 0.00 | 99 | |
| 20260507074618 | 8 | 56 | 4.8 | 11.3 | 0.00 | 0.00 | 0.00 | 99 | |
| 20260507073603 | 8 | 60 | 4.8 | 11.3 | 0.00 | 0.00 | 0.00 | 99 | |
| 20260507072537 | 7 | 120 | 6.4 | 9.7 | 0.00 | 0.00 | 0.00 | 99 | |
| 20260507071526 | 7 | 120 | 4.8 | 14.5 | 0.00 | 0.00 | 0.00 | 99 | |
| 20260507070449 | 8 | 138 | 4.8 | 14.5 | 0.00 | 0.00 | 0.00 | 99 | |
| 20260507065424 | 8 | 89 | 11.3 | 12.9 | 0.00 | 0.00 | 0.00 | 99 | |
| 20260507064449 | 8 | 89 | 3.2 | 12.9 | 0.00 | 0.00 | 0.00 | 99 | |
| 20260507063452 | 8 | 90 | 0.0 | 8.0 | 0.00 | 0.00 | 0.00 | 99 | |
| 20260507062451 | 8 | 72 | 3.2 | 8.0 | 0.00 | 0.00 | 0.00 | 99 | |
| 20260507061415 | 8 | 108 | 6.4 | 8.0 | 0.00 | 0.00 | 0.00 | 99 | |
| 20260507060337 | 8 | 103 | 3.2 | 9.7 | 0.00 | 0.00 | 0.00 | 99 | |
| 20260507055402 | 8 | 37 | 3.2 | 8.0 | 0.00 | 0.00 | 0.00 | 99 | |
| 20260507054437 | 8 | 34 | 3.2 | 4.8 | 0.00 | 0.00 | 0.00 | 99 | |
| 20260507053451 | 8 | 51 | 0.0 | 8.0 | 0.00 | 0.00 | 0.00 | 99 | |
| 20260507052424 | 8 | 347 | 6.4 | 6.4 | 0.00 | 0.00 | 0.00 | 99 | |
| 20260507051427 | 8 | 42 | 4.8 | 6.4 | 0.00 | 0.00 | 0.00 | 99 | |
| 20260507050351 | 7 | 90 | 0.0 | 4.8 | 0.00 | 0.00 | 0.00 | 99 | |
| 20260507045424 | 7 | 323 | 3.2 | 6.4 | 0.00 | 0.00 | 0.00 | 99 | |
| 20260507044339 | 7 | 318 | 6.4 | 12.9 | 0.00 | 0.00 | 0.00 | 99 | |
| 20260507043326 | 7 | 307 | 11.3 | 11.3 | 0.00 | 0.00 | 0.00 | 99 | |
| 20260507042401 | 7 | 342 | 8.0 | 8.0 | 0.00 | 0.00 | 0.00 | 99 | |
| 20260507041314 | 7 | 336 | 4.8 | 9.7 | 0.00 | 0.00 | 0.00 | 99 | |
| 20260507040352 | 7 | 307 | 9.7 | 9.7 | 0.00 | 0.00 | 0.00 | 99 | |
| 20260507035401 | 7 | 318 | 8.0 | 8.0 | 0.00 | 0.00 | 0.00 | 99 | |
| 20260507034338 | 7 | 330 | 0.0 | 6.4 | 0.00 | 0.00 | 0.00 | 99 | |
| 20260507033326 | 7 | 270 | 4.8 | 6.4 | 0.00 | 0.00 | 0.00 | 99 | |
| 20260507032335 | 7 | 321 | 3.2 | 8.0 | 0.00 | 0.00 | 0.00 | 99 | |
| 20260507031312 | 7 | 318 | 6.4 | 6.4 | 0.00 | 0.00 | 0.00 | 99 | |
| 20260507030338 | 7 | 294 | 4.8 | 6.4 | 0.00 | 0.00 | 0.00 | 99 | |
| 20260507025306 | 7 | 307 | 3.2 | 8.0 | 0.00 | 0.00 | 0.00 | 99 | |
| 20260507024313 | 7 | 283 | 8.0 | 8.0 | 0.00 | 0.00 | 0.00 | 99 | |
| 20260507023302 | 7 | 30 | 0.0 | 8.0 | 0.00 | 0.00 | 0.00 | 99 | |
| 20260507022337 | 7 | 330 | 0.0 | 9.7 | 0.00 | 0.00 | 0.00 | 99 | |
| 20260507021414 | 8 | 336 | 9.7 | 9.7 | 0.00 | 0.00 | 0.00 | 99 | |
| 20260507020402 | 8 | 336 | 4.8 | 8.0 | 0.00 | 0.00 | 0.00 | 99 | |
| 20260507015401 | 8 | 336 | 0.0 | 9.7 | 0.00 | 0.00 | 0.00 | 99 | |
| 20260507014424 | 8 | 309 | 8.0 | 9.7 | 0.00 | 0.00 | 0.00 | 99 | |
| 20260507013415 | 8 | 309 | 6.4 | 6.4 | 0.00 | 0.00 | 0.00 | 99 | |
| 20260507012359 | 8 | 330 | 6.4 | 6.4 | 0.00 | 0.00 | 0.00 | 99 | |
| 20260507011425 | 8 | 66 | 0.0 | 0.0 | 0.00 | 0.00 | 0.00 | 99 | |
| 20260507010412 | 8 | 58 | 0.0 | 0.0 | 0.00 | 0.00 | 0.00 | 99 | |
| 20260507005336 | 8 | 58 | 0.0 | 0.0 | 0.00 | 0.00 | 0.00 | 99 | |
| 20260507004339 | 8 | 58 | 0.0 | 0.0 | 0.00 | 0.00 | 0.00 | 99 | |
| 20260507003327 | 8 | 58 | 0.0 | 6.4 | 0.00 | 0.00 | 0.00 | 99 | |
| 20260507002402 | 8 | 68 | 6.4 | 6.4 | 0.00 | 0.00 | 0.00 | 99 | |
| 20260507001312 | 8 | 307 | 0.0 | 3.2 | 0.00 | 0.00 | 0.00 | 99 | |
| 20260507000338 | 8 | 307 | 3.2 | 3.2 | 0.00 | 0.00 | 0.00 | 99 | |
| 20260506235335 | 8 | 307 | 0.0 | 6.4 | 0.00 | 0.00 | 0.00 | 99 | |
| 20260506234313 | 7 | 318 | 6.4 | 6.4 | 0.00 | 0.00 | 0.00 | 99 | |
| 20260506233237 | 8 | 264 | 4.8 | 4.8 | 0.00 | 0.00 | 0.00 | 99 |